createdAt,value
2018-12-27T00:00:09.439Z,0.00
2018-12-27T00:01:09.434Z,0.00
2018-12-27T00:02:09.419Z,0.00
2018-12-27T00:03:09.431Z,0.00
2018-12-27T00:04:09.400Z,0.00
2018-12-27T00:05:09.383Z,0.00
2018-12-27T00:06:09.370Z,0.00
2018-12-27T00:07:09.362Z,0.00
2018-12-27T00:08:09.389Z,0.00
2018-12-27T00:09:09.351Z,0.00
2018-12-27T00:10:09.329Z,0.00
2018-12-27T00:11:09.368Z,0.00
2018-12-27T00:12:09.305Z,0.00
2018-12-27T00:13:09.294Z,0.00
2018-12-27T00:14:09.286Z,0.00
2018-12-27T00:15:09.271Z,0.00
2018-12-27T00:16:09.303Z,0.00
2018-12-27T00:17:09.248Z,0.00
2018-12-27T00:18:09.240Z,0.00
2018-12-27T00:19:09.228Z,0.00
2018-12-27T00:20:09.218Z,0.00
2018-12-27T00:21:09.230Z,0.00
2018-12-27T00:22:09.197Z,0.00
2018-12-27T00:23:09.182Z,0.00
2018-12-27T00:24:09.171Z,0.00
2018-12-27T00:25:09.188Z,0.00
2018-12-27T00:26:09.165Z,0.00
2018-12-27T00:27:09.137Z,0.00
2018-12-27T00:28:09.151Z,0.00
2018-12-27T00:29:09.118Z,0.00
2018-12-27T00:30:09.104Z,0.00
2018-12-27T00:31:09.098Z,0.00
2018-12-27T00:32:09.103Z,0.00
2018-12-27T00:33:09.076Z,0.00
2018-12-27T00:34:09.060Z,0.00
2018-12-27T00:35:09.055Z,0.00
2018-12-27T00:36:09.043Z,0.00
2018-12-27T00:37:09.053Z,0.00
2018-12-27T00:38:09.032Z,0.00
2018-12-27T00:39:09.002Z,0.00
2018-12-27T00:40:08.995Z,0.00
2018-12-27T00:41:08.981Z,0.00
2018-12-27T00:42:09.004Z,0.00
2018-12-27T00:43:08.970Z,0.00
2018-12-27T00:44:08.947Z,0.00
2018-12-27T00:45:08.939Z,0.00
2018-12-27T00:46:08.940Z,0.00
2018-12-27T00:47:08.929Z,0.00
2018-12-27T00:48:08.906Z,0.00
2018-12-27T00:49:08.902Z,0.00
2018-12-27T00:50:08.878Z,0.00
2018-12-27T00:51:08.892Z,0.00
2018-12-27T00:52:08.857Z,0.00
2018-12-27T00:53:08.850Z,0.00
2018-12-27T00:54:08.846Z,0.00
2018-12-27T00:55:08.856Z,0.00
2018-12-27T00:56:08.814Z,0.00
2018-12-27T00:57:08.809Z,0.00
2018-12-27T00:58:08.797Z,0.00
2018-12-27T00:59:08.806Z,0.00
2018-12-27T01:00:08.908Z,0.00
2018-12-27T01:01:08.793Z,0.00
2018-12-27T01:02:08.744Z,0.00
2018-12-27T01:03:11.382Z,0.00
2018-12-27T01:04:08.723Z,0.00
2018-12-27T01:05:08.715Z,0.00
2018-12-27T01:06:08.707Z,0.00
2018-12-27T01:07:08.727Z,0.00
2018-12-27T01:08:08.678Z,0.00
2018-12-27T01:09:08.669Z,0.00
2018-12-27T01:10:08.661Z,0.00
2018-12-27T01:11:08.647Z,0.00
2018-12-27T01:12:08.657Z,0.00
2018-12-27T01:13:08.623Z,0.00
2018-12-27T01:14:08.613Z,0.00
2018-12-27T01:15:08.616Z,0.00
2018-12-27T01:16:08.591Z,0.00
2018-12-27T01:17:08.604Z,0.00
2018-12-27T01:18:08.582Z,0.00
2018-12-27T01:19:08.560Z,0.00
2018-12-27T01:20:08.552Z,0.00
2018-12-27T01:21:08.531Z,0.00
2018-12-27T01:22:08.542Z,0.00
2018-12-27T01:23:08.545Z,0.00
2018-12-27T01:24:08.517Z,0.00
2018-12-27T01:25:08.505Z,0.00
2018-12-27T01:26:08.476Z,0.00
2018-12-27T01:27:08.471Z,0.00
2018-12-27T01:28:08.479Z,0.00
2018-12-27T01:29:08.444Z,0.00
2018-12-27T01:30:08.429Z,0.00
2018-12-27T01:31:08.443Z,0.00
2018-12-27T01:32:08.412Z,0.00
2018-12-27T01:33:08.604Z,0.00
2018-12-27T01:34:08.388Z,0.00
2018-12-27T01:35:08.382Z,0.00
2018-12-27T01:36:08.369Z,0.00
2018-12-27T01:37:08.353Z,0.00
2018-12-27T01:38:08.372Z,0.00
2018-12-27T01:39:08.330Z,0.00
2018-12-27T01:40:08.321Z,0.00
2018-12-27T01:41:08.321Z,0.00
2018-12-27T01:42:08.298Z,0.00
2018-12-27T01:43:08.317Z,0.00
2018-12-27T01:44:08.273Z,0.00
2018-12-27T01:45:08.265Z,0.00
2018-12-27T01:46:08.262Z,0.00
2018-12-27T01:47:08.258Z,0.00
2018-12-27T01:48:08.260Z,0.00
2018-12-27T01:49:08.224Z,0.00
2018-12-27T01:50:08.226Z,0.00
2018-12-27T01:51:08.227Z,0.00
2018-12-27T01:52:08.204Z,0.00
2018-12-27T01:53:08.177Z,0.00
2018-12-27T01:54:08.162Z,0.00
2018-12-27T01:55:08.186Z,0.00
2018-12-27T01:56:08.149Z,0.00
2018-12-27T01:57:08.131Z,0.00
2018-12-27T01:58:08.131Z,0.00
2018-12-27T01:59:08.107Z,0.00
2018-12-27T02:00:08.122Z,0.00
2018-12-27T02:01:08.086Z,0.00
2018-12-27T02:02:08.074Z,0.00
2018-12-27T02:03:08.064Z,0.00
2018-12-27T02:04:08.067Z,0.00
2018-12-27T02:05:08.077Z,0.00
2018-12-27T02:06:08.032Z,0.00
2018-12-27T02:07:08.018Z,0.00
2018-12-27T02:08:08.008Z,0.00
2018-12-27T02:09:08.096Z,0.00
2018-12-27T02:10:08.006Z,0.00
2018-12-27T02:11:07.973Z,0.00
2018-12-27T02:12:07.967Z,0.00
2018-12-27T02:13:07.952Z,0.00
2018-12-27T02:14:07.951Z,0.00
2018-12-27T02:15:07.951Z,0.00
2018-12-27T02:16:07.917Z,0.00
2018-12-27T02:17:07.958Z,0.00
2018-12-27T02:18:07.896Z,0.00
2018-12-27T02:19:07.891Z,0.00
2018-12-27T02:20:07.878Z,0.00
2018-12-27T02:21:07.886Z,0.00
2018-12-27T02:22:07.898Z,0.00
2018-12-27T02:23:07.840Z,0.00
2018-12-27T02:24:07.855Z,0.00
2018-12-27T02:25:07.819Z,0.00
2018-12-27T02:26:07.805Z,0.00
2018-12-27T02:27:07.827Z,0.00
2018-12-27T02:28:07.787Z,0.00
2018-12-27T02:29:07.770Z,0.00
2018-12-27T02:30:07.760Z,0.00
2018-12-27T02:31:07.756Z,0.00
2018-12-27T02:32:07.773Z,0.00
2018-12-27T02:33:07.733Z,0.00
2018-12-27T02:34:07.717Z,0.00
2018-12-27T02:35:07.703Z,0.00
2018-12-27T02:36:07.700Z,0.00
2018-12-27T02:37:07.714Z,0.00
2018-12-27T02:38:07.675Z,0.00
2018-12-27T02:39:07.661Z,0.00
2018-12-27T02:40:07.645Z,0.00
2018-12-27T02:41:07.644Z,0.00
2018-12-27T02:42:07.687Z,0.00
2018-12-27T02:43:07.668Z,0.00
2018-12-27T02:44:07.606Z,0.00
2018-12-27T02:45:07.603Z,0.00
2018-12-27T02:46:07.591Z,0.00
2018-12-27T02:47:07.570Z,0.00
2018-12-27T02:48:07.579Z,0.00
2018-12-27T02:49:07.549Z,0.00
2018-12-27T02:50:07.582Z,0.00
2018-12-27T02:51:07.535Z,0.00
2018-12-27T02:52:07.517Z,0.00
2018-12-27T02:53:07.504Z,0.00
2018-12-27T02:54:07.493Z,0.00
2018-12-27T02:55:07.516Z,0.00
2018-12-27T02:56:07.482Z,0.00
2018-12-27T02:57:07.467Z,0.00
2018-12-27T02:58:07.449Z,0.00
2018-12-27T02:59:07.469Z,0.00
2018-12-27T03:00:07.433Z,0.00
2018-12-27T03:01:07.416Z,0.00
2018-12-27T03:02:07.402Z,0.00
2018-12-27T03:03:07.393Z,0.00
2018-12-27T03:04:07.416Z,0.00
2018-12-27T03:05:07.368Z,0.00
2018-12-27T03:06:07.360Z,0.00
2018-12-27T03:07:07.357Z,0.00
2018-12-27T03:08:07.340Z,0.00
2018-12-27T03:09:07.377Z,0.00
2018-12-27T03:10:07.344Z,0.00
2018-12-27T03:11:07.303Z,0.00
2018-12-27T03:12:07.289Z,0.00
2018-12-27T03:13:07.289Z,0.00
2018-12-27T03:14:07.272Z,0.00
2018-12-27T03:15:07.299Z,0.00
2018-12-27T03:16:07.247Z,0.00
2018-12-27T03:17:07.237Z,0.00
2018-12-27T03:18:07.228Z,0.00
2018-12-27T03:19:07.238Z,0.00
2018-12-27T03:20:07.242Z,0.00
2018-12-27T03:21:07.191Z,0.00
2018-12-27T03:22:07.184Z,0.00
2018-12-27T03:23:07.170Z,0.00
2018-12-27T03:24:07.165Z,0.00
2018-12-27T03:25:07.191Z,0.00
2018-12-27T03:26:07.133Z,0.00
2018-12-27T03:27:07.123Z,0.00
2018-12-27T03:28:07.117Z,0.00
2018-12-27T03:29:07.099Z,0.00
2018-12-27T03:30:07.113Z,0.00
2018-12-27T03:31:07.082Z,0.00
2018-12-27T03:32:07.080Z,0.00
2018-12-27T03:33:07.085Z,0.00
2018-12-27T03:34:07.045Z,0.00
2018-12-27T03:35:07.033Z,0.00
2018-12-27T03:36:07.031Z,0.00
2018-12-27T03:37:07.051Z,0.00
2018-12-27T03:38:07.023Z,0.00
2018-12-27T03:39:06.990Z,0.00
2018-12-27T03:40:06.980Z,0.00
2018-12-27T03:41:06.976Z,0.00
2018-12-27T03:42:06.978Z,0.00
2018-12-27T03:43:06.943Z,0.00
2018-12-27T03:44:06.937Z,0.00
2018-12-27T03:45:06.930Z,0.00
2018-12-27T03:46:06.932Z,0.00
2018-12-27T03:47:06.912Z,0.00
2018-12-27T03:48:06.888Z,0.00
2018-12-27T03:49:06.878Z,0.00
2018-12-27T03:50:06.866Z,0.00
2018-12-27T03:51:06.868Z,0.00
2018-12-27T03:52:06.881Z,0.00
2018-12-27T03:53:06.855Z,0.00
2018-12-27T03:54:06.820Z,0.00
2018-12-27T03:55:06.809Z,0.00
2018-12-27T03:56:06.797Z,0.00
2018-12-27T03:57:06.828Z,0.00
2018-12-27T03:58:06.780Z,0.00
2018-12-27T03:59:06.779Z,0.00
2018-12-27T04:00:06.757Z,0.00
2018-12-27T04:01:06.746Z,0.00
2018-12-27T04:02:06.749Z,0.00
2018-12-27T04:03:06.722Z,0.00
2018-12-27T04:04:06.713Z,0.00
2018-12-27T04:05:06.715Z,0.00
2018-12-27T04:06:06.687Z,0.00
2018-12-27T04:07:06.703Z,0.00
2018-12-27T04:08:06.664Z,0.00
2018-12-27T04:09:06.679Z,0.00
2018-12-27T04:10:06.665Z,0.00
2018-12-27T04:11:06.647Z,0.00
2018-12-27T04:12:06.665Z,0.00
2018-12-27T04:13:06.613Z,0.00
2018-12-27T04:14:06.602Z,0.00
2018-12-27T04:15:06.592Z,0.00
2018-12-27T04:16:06.586Z,0.00
2018-12-27T04:17:06.591Z,0.00
2018-12-27T04:18:06.593Z,0.00
2018-12-27T04:19:06.567Z,0.00
2018-12-27T04:20:06.532Z,0.00
2018-12-27T04:21:06.546Z,0.00
2018-12-27T04:22:06.520Z,0.00
2018-12-27T04:23:06.528Z,0.00
2018-12-27T04:24:06.490Z,0.00
2018-12-27T04:25:06.477Z,0.00
2018-12-27T04:26:06.500Z,0.00
2018-12-27T04:27:06.467Z,0.00
2018-12-27T04:28:06.456Z,0.00
2018-12-27T04:29:06.463Z,0.00
2018-12-27T04:30:06.513Z,0.00
2018-12-27T04:31:06.452Z,0.00
2018-12-27T04:32:06.420Z,0.00
2018-12-27T04:33:06.401Z,0.00
2018-12-27T04:34:09.634Z,0.00
2018-12-27T04:35:06.445Z,0.00
2018-12-27T04:36:06.375Z,0.00
2018-12-27T04:37:06.358Z,0.00
2018-12-27T04:38:06.350Z,0.00
2018-12-27T04:39:06.327Z,0.00
2018-12-27T04:40:06.337Z,0.00
2018-12-27T04:41:06.308Z,0.00
2018-12-27T04:42:06.291Z,0.00
2018-12-27T04:43:06.281Z,0.00
2018-12-27T04:44:06.283Z,0.00
2018-12-27T04:45:06.279Z,0.00
2018-12-27T04:46:06.247Z,0.00
2018-12-27T04:47:06.243Z,0.00
2018-12-27T04:48:06.231Z,0.00
2018-12-27T04:49:06.213Z,0.00
2018-12-27T04:50:06.225Z,0.00
2018-12-27T04:51:06.220Z,0.00
2018-12-27T04:52:06.218Z,0.00
2018-12-27T04:53:06.172Z,0.00
2018-12-27T04:54:06.192Z,0.00
2018-12-27T04:55:06.143Z,0.00
2018-12-27T04:56:06.134Z,0.00
2018-12-27T04:57:06.152Z,0.00
2018-12-27T04:58:06.116Z,0.00
2018-12-27T04:59:06.101Z,0.00
2018-12-27T05:00:06.094Z,0.00
2018-12-27T05:01:06.075Z,0.00
2018-12-27T05:02:06.088Z,0.00
2018-12-27T05:03:06.097Z,0.00
2018-12-27T05:04:06.049Z,0.00
2018-12-27T05:05:06.036Z,0.00
2018-12-27T05:06:06.059Z,0.00
2018-12-27T05:07:06.015Z,0.00
2018-12-27T05:08:06.008Z,0.00
2018-12-27T05:09:06.018Z,0.00
2018-12-27T05:10:05.978Z,0.00
2018-12-27T05:11:05.969Z,0.00
2018-12-27T05:12:05.959Z,0.00
2018-12-27T05:13:05.943Z,0.00
2018-12-27T05:14:05.978Z,0.00
2018-12-27T05:15:05.921Z,0.00
2018-12-27T05:16:05.912Z,0.00
2018-12-27T05:17:05.912Z,0.00
2018-12-27T05:18:05.890Z,0.00
2018-12-27T05:19:05.899Z,0.00
2018-12-27T05:20:05.878Z,0.00
2018-12-27T05:21:05.860Z,0.00
2018-12-27T05:22:05.882Z,0.00
2018-12-27T05:23:05.832Z,0.00
2018-12-27T05:24:05.826Z,0.00
2018-12-27T05:25:05.821Z,0.00
2018-12-27T05:26:05.821Z,0.00
2018-12-27T05:27:05.817Z,0.00
2018-12-27T05:28:05.785Z,0.00
2018-12-27T05:29:05.790Z,0.00
2018-12-27T05:30:05.769Z,0.00
2018-12-27T05:31:05.764Z,0.00
2018-12-27T05:32:05.758Z,0.00
2018-12-27T05:33:05.723Z,0.00
2018-12-27T05:34:05.737Z,0.00
2018-12-27T05:35:05.701Z,0.00
2018-12-27T05:36:05.691Z,0.00
2018-12-27T05:37:05.687Z,0.00
2018-12-27T05:38:05.691Z,0.00
2018-12-27T05:39:05.665Z,0.00
2018-12-27T05:40:05.656Z,0.00
2018-12-27T05:41:05.635Z,0.00
2018-12-27T05:42:05.637Z,0.00
2018-12-27T05:43:05.650Z,0.00
2018-12-27T05:44:05.650Z,0.00
2018-12-27T05:45:05.605Z,0.00
2018-12-27T05:46:05.577Z,0.00
2018-12-27T05:47:05.592Z,0.00
2018-12-27T05:48:05.564Z,0.00
2018-12-27T05:49:05.544Z,0.00
2018-12-27T05:50:05.535Z,0.00
2018-12-27T05:51:05.527Z,0.00
2018-12-27T05:52:05.532Z,0.00
2018-12-27T05:53:05.523Z,0.00
2018-12-27T05:54:05.512Z,0.00
2018-12-27T05:55:05.496Z,0.00
2018-12-27T05:56:05.471Z,0.00
2018-12-27T05:57:05.492Z,0.00
2018-12-27T05:58:05.444Z,0.00
2018-12-27T05:59:05.435Z,0.00
2018-12-27T06:00:05.428Z,0.00
2018-12-27T06:01:05.416Z,0.00
2018-12-27T06:02:05.423Z,0.00
2018-12-27T06:03:05.412Z,0.00
2018-12-27T06:04:05.381Z,0.00
2018-12-27T06:05:05.369Z,0.00
2018-12-27T06:06:05.372Z,0.00
2018-12-27T06:07:05.346Z,0.00
2018-12-27T06:08:05.341Z,0.00
2018-12-27T06:09:05.331Z,0.00
2018-12-27T06:10:05.339Z,0.00
2018-12-27T06:11:05.302Z,0.00
2018-12-27T06:12:05.315Z,0.00
2018-12-27T06:13:05.281Z,0.00
2018-12-27T06:14:05.270Z,0.00
2018-12-27T06:15:05.261Z,0.00
2018-12-27T06:16:05.247Z,0.00
2018-12-27T06:17:05.250Z,0.00
2018-12-27T06:18:05.224Z,0.00
2018-12-27T06:19:05.219Z,0.00
2018-12-27T06:20:05.210Z,0.00
2018-12-27T06:21:05.210Z,0.00
2018-12-27T06:22:05.188Z,0.00
2018-12-27T06:23:05.180Z,0.00
2018-12-27T06:24:05.159Z,0.00
2018-12-27T06:25:05.186Z,0.00
2018-12-27T06:26:05.137Z,0.00
2018-12-27T06:27:05.135Z,0.00
2018-12-27T06:28:05.120Z,0.00
2018-12-27T06:29:05.102Z,0.00
2018-12-27T06:30:05.116Z,0.00
2018-12-27T06:31:05.078Z,0.00
2018-12-27T06:32:05.095Z,0.00
2018-12-27T06:33:05.058Z,0.00
2018-12-27T06:34:05.063Z,0.00
2018-12-27T06:35:05.041Z,0.00
2018-12-27T06:36:05.051Z,0.00
2018-12-27T06:37:05.014Z,0.00
2018-12-27T06:38:05.031Z,0.00
2018-12-27T06:39:04.992Z,0.00
2018-12-27T06:40:04.980Z,0.00
2018-12-27T06:41:04.970Z,0.00
2018-12-27T06:42:04.959Z,0.00
2018-12-27T06:43:04.976Z,0.00
2018-12-27T06:44:04.937Z,0.00
2018-12-27T06:45:04.924Z,0.00
2018-12-27T06:46:04.912Z,0.00
2018-12-27T06:47:04.902Z,0.00
2018-12-27T06:48:04.914Z,0.00
2018-12-27T06:49:04.883Z,0.00
2018-12-27T06:50:04.895Z,0.00
2018-12-27T06:51:04.858Z,0.00
2018-12-27T06:52:04.851Z,0.00
2018-12-27T06:53:04.853Z,0.00
2018-12-27T06:54:04.890Z,4.00
2018-12-27T06:55:04.839Z,4.00
2018-12-27T06:56:04.804Z,0.00
2018-12-27T06:57:04.816Z,4.00
2018-12-27T06:58:04.779Z,4.00
2018-12-27T06:59:04.768Z,4.00
2018-12-27T07:00:05.463Z,4.00
2018-12-27T07:01:04.749Z,4.00
2018-12-27T07:02:04.751Z,8.00
2018-12-27T07:03:04.748Z,8.00
2018-12-27T07:04:04.713Z,8.00
2018-12-27T07:05:04.706Z,12.00
2018-12-27T07:06:04.691Z,12.00
2018-12-27T07:07:04.680Z,16.00
2018-12-27T07:08:04.693Z,16.00
2018-12-27T07:09:04.664Z,20.00
2018-12-27T07:10:04.647Z,24.00
2018-12-27T07:11:04.664Z,28.00
2018-12-27T07:12:04.625Z,32.00
2018-12-27T07:13:04.633Z,32.00
2018-12-27T07:14:04.606Z,40.00
2018-12-27T07:15:04.603Z,44.00
2018-12-27T07:16:04.608Z,48.00
2018-12-27T07:17:04.568Z,56.00
2018-12-27T07:18:04.594Z,60.00
2018-12-27T07:19:04.573Z,68.00
2018-12-27T07:20:04.555Z,72.00
2018-12-27T07:21:04.524Z,80.00
2018-12-27T07:22:04.514Z,92.00
2018-12-27T07:23:04.507Z,96.00
2018-12-27T07:24:04.491Z,104.00
2018-12-27T07:25:04.497Z,112.00
2018-12-27T07:26:04.500Z,120.00
2018-12-27T07:27:04.458Z,132.00
2018-12-27T07:28:04.448Z,140.00
2018-12-27T07:29:04.436Z,152.00
2018-12-27T07:30:04.425Z,164.00
2018-12-27T07:31:04.440Z,176.00
2018-12-27T07:32:04.402Z,188.00
2018-12-27T07:33:04.400Z,200.00
2018-12-27T07:34:04.416Z,216.00
2018-12-27T07:35:04.371Z,228.00
2018-12-27T07:36:04.385Z,244.00
2018-12-27T07:37:04.346Z,256.00
2018-12-27T07:38:04.336Z,276.00
2018-12-27T07:39:04.327Z,292.00
2018-12-27T07:40:04.340Z,308.00
2018-12-27T07:41:04.306Z,328.00
2018-12-27T07:42:04.293Z,340.00
2018-12-27T07:43:04.284Z,360.00
2018-12-27T07:44:04.281Z,380.00
2018-12-27T07:45:04.286Z,396.00
2018-12-27T07:46:10.721Z,416.00
2018-12-27T07:47:05.716Z,436.00
2018-12-27T07:48:04.244Z,452.00
2018-12-27T07:49:04.215Z,472.00
2018-12-27T07:50:04.235Z,492.00
2018-12-27T07:51:04.194Z,508.00
2018-12-27T07:52:04.206Z,528.00
2018-12-27T07:53:04.199Z,552.00
2018-12-27T07:54:04.161Z,568.00
2018-12-27T07:55:04.148Z,596.00
2018-12-27T07:56:04.136Z,620.00
2018-12-27T07:57:04.187Z,640.00
2018-12-27T07:58:04.115Z,660.00
2018-12-27T07:59:04.103Z,680.00
2018-12-27T08:00:04.096Z,700.00
2018-12-27T08:01:04.089Z,716.00
2018-12-27T08:02:04.096Z,732.00
2018-12-27T08:03:04.059Z,744.00
2018-12-27T08:04:04.047Z,760.00
2018-12-27T08:05:04.568Z,776.00
2018-12-27T08:06:04.028Z,796.00
2018-12-27T08:07:04.040Z,816.00
2018-12-27T08:08:04.028Z,836.00
2018-12-27T08:09:03.994Z,848.00
2018-12-27T08:10:03.982Z,864.00
2018-12-27T08:11:03.971Z,884.00
2018-12-27T08:12:03.960Z,900.00
2018-12-27T08:13:03.972Z,920.00
2018-12-27T08:14:03.938Z,936.00
2018-12-27T08:15:03.925Z,952.00
2018-12-27T08:16:03.920Z,972.00
2018-12-27T08:17:04.023Z,992.00
2018-12-27T08:18:03.893Z,1012.00
2018-12-27T08:19:03.894Z,1032.00
2018-12-27T08:20:03.870Z,1056.00
2018-12-27T08:21:03.936Z,1076.00
2018-12-27T08:22:03.872Z,1096.00
2018-12-27T08:23:03.837Z,1116.00
2018-12-27T08:24:03.838Z,1136.00
2018-12-27T08:25:03.814Z,1156.00
2018-12-27T08:26:03.804Z,1172.00
2018-12-27T08:27:03.817Z,1192.00
2018-12-27T08:28:03.785Z,1208.00
2018-12-27T08:29:03.773Z,1220.00
2018-12-27T08:30:03.761Z,1240.00
2018-12-27T08:31:03.748Z,1252.00
2018-12-27T08:32:03.764Z,1272.00
2018-12-27T08:33:03.728Z,1292.00
2018-12-27T08:34:03.714Z,1308.00
2018-12-27T08:35:03.704Z,1324.00
2018-12-27T08:36:03.694Z,1336.00
2018-12-27T08:37:03.715Z,1352.00
2018-12-27T08:38:03.669Z,1364.00
2018-12-27T08:39:03.690Z,1376.00
2018-12-27T08:40:03.648Z,1388.00
2018-12-27T08:41:03.637Z,1400.00
2018-12-27T08:42:03.627Z,1416.00
2018-12-27T08:43:03.615Z,1428.00
2018-12-27T08:44:03.626Z,1444.00
2018-12-27T08:45:03.609Z,1456.00
2018-12-27T08:46:03.591Z,1476.00
2018-12-27T08:47:03.572Z,1496.00
2018-12-27T08:48:03.564Z,1524.00
2018-12-27T08:49:03.549Z,1556.00
2018-12-27T08:50:03.563Z,1584.00
2018-12-27T08:51:03.541Z,1612.00
2018-12-27T08:52:03.516Z,1640.00
2018-12-27T08:53:03.504Z,1668.00
2018-12-27T08:54:03.497Z,1684.00
2018-12-27T08:55:03.507Z,1692.00
2018-12-27T08:56:03.471Z,1704.00
2018-12-27T08:57:03.484Z,1724.00
2018-12-27T08:58:03.448Z,1748.00
2018-12-27T08:59:03.442Z,1732.00
2018-12-27T09:00:03.426Z,1728.00
2018-12-27T09:01:03.447Z,1728.00
2018-12-27T09:02:03.404Z,1752.00
2018-12-27T09:03:03.393Z,1788.00
2018-12-27T09:04:03.382Z,1816.00
2018-12-27T09:05:03.373Z,1864.00
2018-12-27T09:06:03.387Z,1900.00
2018-12-27T09:07:04.265Z,1920.00
2018-12-27T09:08:03.338Z,1928.00
2018-12-27T09:09:03.328Z,1956.00
2018-12-27T09:10:03.316Z,1992.00
2018-12-27T09:11:03.331Z,2028.00
2018-12-27T09:12:03.296Z,2044.00
2018-12-27T09:13:03.305Z,2044.00
2018-12-27T09:14:03.272Z,2072.00
2018-12-27T09:15:03.261Z,2076.00
2018-12-27T09:16:03.251Z,2132.00
2018-12-27T09:17:03.266Z,2160.00
2018-12-27T09:18:03.227Z,2096.00
2018-12-27T09:19:03.215Z,2108.00
2018-12-27T09:20:03.205Z,2132.00
2018-12-27T09:21:03.194Z,2168.00
2018-12-27T09:22:03.206Z,2152.00
2018-12-27T09:23:03.171Z,2196.00
2018-12-27T09:24:03.163Z,2244.00
2018-12-27T09:25:03.171Z,2244.00
2018-12-27T09:26:03.139Z,2236.00
2018-12-27T09:27:03.127Z,2248.00
2018-12-27T09:28:03.123Z,2276.00
2018-12-27T09:29:03.139Z,2320.00
2018-12-27T09:30:03.094Z,2344.00
2018-12-27T09:31:03.082Z,2364.00
2018-12-27T09:32:03.087Z,2388.00
2018-12-27T09:33:03.095Z,2392.00
2018-12-27T09:34:03.053Z,2412.00
2018-12-27T09:35:03.038Z,2420.00
2018-12-27T09:36:03.027Z,2444.00
2018-12-27T09:37:03.522Z,2492.00
2018-12-27T09:38:03.020Z,2488.00
2018-12-27T09:39:03.009Z,2476.00
2018-12-27T09:40:03.002Z,2480.00
2018-12-27T09:41:02.972Z,2468.00
2018-12-27T09:42:02.959Z,2476.00
2018-12-27T09:43:02.952Z,2408.00
2018-12-27T09:44:02.940Z,2412.00
2018-12-27T09:45:02.950Z,2376.00
2018-12-27T09:46:02.916Z,2356.00
2018-12-27T09:47:02.905Z,2356.00
2018-12-27T09:48:02.892Z,2384.00
2018-12-27T09:49:02.883Z,2396.00
2018-12-27T09:50:02.894Z,2420.00
2018-12-27T09:51:02.861Z,2452.00
2018-12-27T09:52:02.877Z,2424.00
2018-12-27T09:53:02.843Z,2400.00
2018-12-27T09:54:02.831Z,2388.00
2018-12-27T09:55:02.817Z,2372.00
2018-12-27T09:56:02.830Z,2364.00
2018-12-27T09:57:02.798Z,2336.00
2018-12-27T09:58:02.788Z,2316.00
2018-12-27T09:59:02.771Z,2316.00
2018-12-27T10:00:02.787Z,2348.00
2018-12-27T10:01:02.771Z,2380.00
2018-12-27T10:02:02.740Z,2420.00
2018-12-27T10:03:02.727Z,2412.00
2018-12-27T10:04:02.716Z,2416.00
2018-12-27T10:05:02.705Z,2448.00
2018-12-27T10:06:02.717Z,2464.00
2018-12-27T10:07:02.680Z,2484.00
2018-12-27T10:08:02.672Z,2512.00
2018-12-27T10:09:02.657Z,2516.00
2018-12-27T10:10:02.689Z,2544.00
2018-12-27T10:11:02.639Z,2588.00
2018-12-27T10:12:02.626Z,2604.00
2018-12-27T10:13:02.616Z,2608.00
2018-12-27T10:14:02.610Z,2620.00
2018-12-27T10:15:02.615Z,2632.00
2018-12-27T10:16:02.602Z,2676.00
2018-12-27T10:17:02.573Z,2684.00
2018-12-27T10:18:02.559Z,2704.00
2018-12-27T10:19:02.552Z,2756.00
2018-12-27T10:20:02.541Z,2776.00
2018-12-27T10:21:02.548Z,2784.00
2018-12-27T10:22:02.518Z,2820.00
2018-12-27T10:23:02.510Z,2824.00
2018-12-27T10:24:02.500Z,2828.00
2018-12-27T10:25:02.478Z,2888.00
2018-12-27T10:26:02.494Z,2916.00
2018-12-27T10:27:02.485Z,2964.00
2018-12-27T10:28:02.486Z,3028.00
2018-12-27T10:29:02.463Z,3048.00
2018-12-27T10:30:02.435Z,3084.00
2018-12-27T10:31:02.439Z,3152.00
2018-12-27T10:32:02.428Z,3180.00
2018-12-27T10:33:02.423Z,3284.00
2018-12-27T10:34:02.379Z,3396.00
2018-12-27T10:35:02.368Z,3456.00
2018-12-27T10:36:02.358Z,3496.00
2018-12-27T10:37:02.351Z,3560.00
2018-12-27T10:38:02.358Z,3600.00
2018-12-27T10:39:02.323Z,3636.00
2018-12-27T10:40:02.315Z,3724.00
2018-12-27T10:41:02.327Z,3776.00
2018-12-27T10:42:02.291Z,3816.00
2018-12-27T10:43:02.280Z,3860.00
2018-12-27T10:44:02.268Z,3896.00
2018-12-27T10:45:02.257Z,3912.00
2018-12-27T10:46:02.290Z,3936.00
2018-12-27T10:47:02.234Z,3952.00
2018-12-27T10:48:02.234Z,3964.00
2018-12-27T10:49:02.217Z,3964.00
2018-12-27T10:50:02.199Z,3976.00
2018-12-27T10:51:02.213Z,3952.00
2018-12-27T10:52:02.179Z,3944.00
2018-12-27T10:53:02.178Z,3956.00
2018-12-27T10:54:02.155Z,3944.00
2018-12-27T10:55:02.172Z,3960.00
2018-12-27T10:56:02.136Z,3988.00
2018-12-27T10:57:02.122Z,3988.00
2018-12-27T10:58:02.134Z,3932.00
2018-12-27T10:59:02.099Z,3860.00
2018-12-27T11:00:02.092Z,3888.00
2018-12-27T11:01:02.079Z,3884.00
2018-12-27T11:02:02.080Z,3960.00
2018-12-27T11:03:02.062Z,3976.00
2018-12-27T11:04:02.053Z,3988.00
2018-12-27T11:05:02.033Z,3984.00
2018-12-27T11:06:02.021Z,3924.00
2018-12-27T11:07:02.114Z,3956.00
2018-12-27T11:08:01.998Z,3840.00
2018-12-27T11:09:01.986Z,3944.00
2018-12-27T11:10:01.983Z,3992.00
2018-12-27T11:11:01.964Z,3936.00
2018-12-27T11:12:01.979Z,3932.00
2018-12-27T11:13:01.945Z,4016.00
2018-12-27T11:14:01.931Z,4004.00
2018-12-27T11:15:01.927Z,3968.00
2018-12-27T11:16:01.931Z,3808.00
2018-12-27T11:17:01.898Z,3764.00
2018-12-27T11:18:01.887Z,3904.00
2018-12-27T11:19:01.876Z,3880.00
2018-12-27T11:20:01.883Z,3944.00
2018-12-27T11:21:01.853Z,3744.00
2018-12-27T11:22:01.866Z,3736.00
2018-12-27T11:23:01.853Z,3780.00
2018-12-27T11:24:01.818Z,3716.00
2018-12-27T11:25:01.808Z,3660.00
2018-12-27T11:26:01.797Z,3536.00
2018-12-27T11:27:01.788Z,3512.00
2018-12-27T11:28:01.791Z,3492.00
2018-12-27T11:29:01.803Z,3688.00
2018-12-27T11:30:01.754Z,4004.00
2018-12-27T11:31:01.742Z,3900.00
2018-12-27T11:32:01.732Z,3836.00
2018-12-27T11:33:01.720Z,4080.00
2018-12-27T11:34:01.733Z,4004.00
2018-12-27T11:35:01.698Z,4136.00
2018-12-27T11:36:01.685Z,4120.00
2018-12-27T11:37:01.673Z,4112.00
2018-12-27T11:38:01.663Z,4108.00
2018-12-27T11:39:01.676Z,3988.00
2018-12-27T11:40:01.652Z,4100.00
2018-12-27T11:41:01.629Z,4228.00
2018-12-27T11:42:01.635Z,4324.00
2018-12-27T11:43:01.611Z,4308.00
2018-12-27T11:44:01.597Z,4352.00
2018-12-27T11:45:01.589Z,4336.00
2018-12-27T11:46:01.572Z,4340.00
2018-12-27T11:47:01.586Z,4208.00
2018-12-27T11:48:01.549Z,4064.00
2018-12-27T11:49:01.565Z,3896.00
2018-12-27T11:50:01.530Z,3660.00
2018-12-27T11:51:01.522Z,3752.00
2018-12-27T11:52:01.523Z,4000.00
2018-12-27T11:53:01.494Z,3952.00
2018-12-27T11:54:01.506Z,3764.00
2018-12-27T11:55:01.472Z,3868.00
2018-12-27T11:56:01.477Z,3976.00
2018-12-27T11:57:01.472Z,3816.00
2018-12-27T11:58:01.441Z,3788.00
2018-12-27T11:59:01.427Z,4112.00
2018-12-27T12:00:01.416Z,4168.00
2018-12-27T12:01:01.430Z,4228.00
2018-12-27T12:02:01.409Z,4432.00
2018-12-27T12:03:01.382Z,4784.00
2018-12-27T12:04:01.405Z,4848.00
2018-12-27T12:05:01.365Z,4932.00
2018-12-27T12:06:03.312Z,4468.00
2018-12-27T12:07:01.376Z,4288.00
2018-12-27T12:08:01.349Z,4476.00
2018-12-27T12:09:01.314Z,4324.00
2018-12-27T12:10:01.305Z,4148.00
2018-12-27T12:11:01.357Z,4396.00
2018-12-27T12:12:01.305Z,4312.00
2018-12-27T12:13:01.340Z,4544.00
2018-12-27T12:14:01.265Z,4260.00
2018-12-27T12:15:01.249Z,4644.00
2018-12-27T12:16:01.308Z,4772.00
2018-12-27T12:17:01.247Z,4544.00
2018-12-27T12:18:01.214Z,4596.00
2018-12-27T12:19:01.204Z,4124.00
2018-12-27T12:20:01.190Z,3836.00
2018-12-27T12:21:01.192Z,3704.00
2018-12-27T12:22:01.192Z,4228.00
2018-12-27T12:23:01.159Z,3188.00
2018-12-27T12:24:01.146Z,3288.00
2018-12-27T12:25:01.135Z,3060.00
2018-12-27T12:26:01.186Z,2956.00
2018-12-27T12:27:01.148Z,2980.00
2018-12-27T12:28:01.102Z,2884.00
2018-12-27T12:29:01.098Z,2816.00
2018-12-27T12:30:01.077Z,2756.00
2018-12-27T12:31:01.069Z,2728.00
2018-12-27T12:32:01.092Z,2712.00
2018-12-27T12:33:01.044Z,2700.00
2018-12-27T12:34:01.032Z,2664.00
2018-12-27T12:35:01.022Z,2620.00
2018-12-27T12:36:01.012Z,2612.00
2018-12-27T12:37:01.037Z,2612.00
2018-12-27T12:38:00.990Z,2588.00
2018-12-27T12:39:00.977Z,2548.00
2018-12-27T12:40:00.968Z,2488.00
2018-12-27T12:41:00.955Z,2412.00
2018-12-27T12:42:00.971Z,2368.00
2018-12-27T12:43:00.936Z,2324.00
2018-12-27T12:44:00.945Z,2292.00
2018-12-27T12:45:00.909Z,2260.00
2018-12-27T12:46:00.899Z,2232.00
2018-12-27T12:47:00.888Z,2212.00